Albany, New York
Traffic Map
Current Weather Conditions
Albany, New York
Overcast Light Rain
Overcast
34°
Feels Like: 28°
Wind Chill: 28° Ceiling: 600
Heat Index: 34° Visibility: 3mi
Dew Point: 31° Wind: 7mph
Humidity: 89% Direction: 190° (S)
Pressure: 29.99in Gusts: 0mph
Raw Report DataKALB 180451Z 19006KT 3SM -RA BR BKN006 OVC018 01/M01 A2999 RMK AO2 SFC VIS 4 PLB04E15 SLP159 P0005 T00111006 400111072
Traffic Incident Summary
Active as of:
Severity:
Category:
InformationThere was an issue retrieving the traffic information for this location. Please try a different location or try again shortly.
Advertisements
Track Severe Weather on mobile